Pagina principale
METAR-TAF:

METAR-TAF

Aeroporti :

Payerne, Svizzera

latitudine: 46-49N, longitudine: 006-57E, altezza: 490 m

Osservazione

Il bollettino è stato emesso 24 minuti fa, alle 01:50 UTC
Vento 3 kt da sud/sud-ovest
Temperature 8°C
Umidità 87%
Pressione 1018 hPa
Visibilità 10 km o più
Poco nuvoloso ad un'altezza di 5600 ft

METAR: LSMP 160150Z AUTO 21003KT 9999NDV FEW056 08/06 Q1018 RMK

Ora: 04:14 (02:14 UTC)


TAF: mancante

Osservazioni e previsioni meteorologiche di più di 4000 aeroporti (messaggi METAR e TAF).

Le stazioni disponibili sono rappresentate dai dischi gialli e rossi sulla carta.

Puntare il mouse per vedere il nome della stazione.

Clicca sopra per visualizzare le osservazioni e previsioni meteorologiche.

Per cambiare la mappa : fare clic sui pulsanti verdi con una croce nera per ingrandire, il pulsante verde con un trattino per diminuire, o sulla freccia verde per le mappe adiacenti.


METAR-TAF: